Terminal Aerodrome Forecast
Issued by NWS Grand Forks, ND

Home | Current Version | Previous Version | Graphics & Text | Print | Product List | Glossary Off
Versions: 1 2 3 4 5 6 7 8 9 10 11 12

000
FTUS43 KFGF 130500
TAFFAR
TAF
KFAR 130520Z 1306/1406 35006KT P6SM SCT090
     FM131500 32019G27KT P6SM SCT080
     FM140100 32008KT P6SM BKN080=

USA.gov is the U.S. government's official web portal to all federal, state and local government web resources and services.